sensor_id;sensor_type;location;lat;lon;timestamp;temperature;humidity
3408;DHT22;1717;50.240;8.406;2022-09-19T00:01:12;11.20;99.90
3408;DHT22;1717;50.240;8.406;2022-09-19T00:03:43;11.20;99.90
3408;DHT22;1717;50.240;8.406;2022-09-19T00:06:11;11.20;99.90
3408;DHT22;1717;50.240;8.406;2022-09-19T00:08:41;11.20;99.90
3408;DHT22;1717;50.240;8.406;2022-09-19T00:11:09;11.20;99.90
3408;DHT22;1717;50.240;8.406;2022-09-19T00:13:39;11.30;99.90
3408;DHT22;1717;50.240;8.406;2022-09-19T00:16:11;11.20;99.90
3408;DHT22;1717;50.240;8.406;2022-09-19T00:18:38;11.30;99.90
3408;DHT22;1717;50.240;8.406;2022-09-19T00:21:05;11.30;99.90
3408;DHT22;1717;50.240;8.406;2022-09-19T00:23:32;11.30;99.90
3408;DHT22;1717;50.240;8.406;2022-09-19T00:26:16;11.30;99.90
3408;DHT22;1717;50.240;8.406;2022-09-19T00:28:46;11.30;99.90
3408;DHT22;1717;50.240;8.406;2022-09-19T00:31:15;11.30;99.90
3408;DHT22;1717;50.240;8.406;2022-09-19T00:33:44;11.20;99.90
3408;DHT22;1717;50.240;8.406;2022-09-19T00:36:12;11.20;99.90
3408;DHT22;1717;50.240;8.406;2022-09-19T00:38:39;11.20;99.90
3408;DHT22;1717;50.240;8.406;2022-09-19T00:41:06;11.20;99.90
3408;DHT22;1717;50.240;8.406;2022-09-19T00:43:47;11.20;99.90
3408;DHT22;1717;50.240;8.406;2022-09-19T00:46:14;11.20;99.90
3408;DHT22;1717;50.240;8.406;2022-09-19T00:48:42;11.30;99.90
3408;DHT22;1717;50.240;8.406;2022-09-19T00:51:12;11.30;99.90
3408;DHT22;1717;50.240;8.406;2022-09-19T00:53:41;11.40;99.90
3408;DHT22;1717;50.240;8.406;2022-09-19T00:56:08;11.40;99.90
3408;DHT22;1717;50.240;8.406;2022-09-19T00:58:38;11.40;99.90
3408;DHT22;1717;50.240;8.406;2022-09-19T01:01:07;11.40;99.90
3408;DHT22;1717;50.240;8.406;2022-09-19T01:03:34;11.40;99.90
3408;DHT22;1717;50.240;8.406;2022-09-19T01:06:10;11.40;99.90
3408;DHT22;1717;50.240;8.406;2022-09-19T01:08:51;11.30;99.90
3408;DHT22;1717;50.240;8.406;2022-09-19T01:11:34;11.40;99.90
3408;DHT22;1717;50.240;8.406;2022-09-19T01:14:10;11.40;99.90
3408;DHT22;1717;50.240;8.406;2022-09-19T01:16:44;11.50;99.90
3408;DHT22;1717;50.240;8.406;2022-09-19T01:19:31;11.50;99.90
3408;DHT22;1717;50.240;8.406;2022-09-19T01:22:07;11.50;99.90
3408;DHT22;1717;50.240;8.406;2022-09-19T01:24:47;11.40;99.90
3408;DHT22;1717;50.240;8.406;2022-09-19T01:27:37;11.40;99.90
3408;DHT22;1717;50.240;8.406;2022-09-19T01:30:09;11.40;99.90
3408;DHT22;1717;50.240;8.406;2022-09-19T01:32:40;11.40;99.90
3408;DHT22;1717;50.240;8.406;2022-09-19T01:35:12;11.40;99.90
3408;DHT22;1717;50.240;8.406;2022-09-19T01:37:45;11.40;99.90
3408;DHT22;1717;50.240;8.406;2022-09-19T01:40:15;11.40;99.90
3408;DHT22;1717;50.240;8.406;2022-09-19T01:42:50;11.40;99.90
3408;DHT22;1717;50.240;8.406;2022-09-19T01:45:23;11.40;99.90
3408;DHT22;1717;50.240;8.406;2022-09-19T01:48:00;11.50;99.90
3408;DHT22;1717;50.240;8.406;2022-09-19T01:50:39;11.50;99.90
3408;DHT22;1717;50.240;8.406;2022-09-19T01:53:17;11.50;99.90
3408;DHT22;1717;50.240;8.406;2022-09-19T01:55:55;11.40;99.90
3408;DHT22;1717;50.240;8.406;2022-09-19T01:58:33;11.50;99.90
3408;DHT22;1717;50.240;8.406;2022-09-19T02:01:10;11.40;99.90
3408;DHT22;1717;50.240;8.406;2022-09-19T02:03:44;11.50;99.90
3408;DHT22;1717;50.240;8.406;2022-09-19T02:06:18;11.50;99.90
3408;DHT22;1717;50.240;8.406;2022-09-19T02:08:54;11.40;99.90
3408;DHT22;1717;50.240;8.406;2022-09-19T02:11:23;11.50;99.90
3408;DHT22;1717;50.240;8.406;2022-09-19T02:13:53;11.50;99.90
3408;DHT22;1717;50.240;8.406;2022-09-19T02:16:26;11.50;99.90
3408;DHT22;1717;50.240;8.406;2022-09-19T02:18:59;11.50;99.90
3408;DHT22;1717;50.240;8.406;2022-09-19T02:21:31;11.50;99.90
3408;DHT22;1717;50.240;8.406;2022-09-19T02:24:03;11.50;99.90
3408;DHT22;1717;50.240;8.406;2022-09-19T02:26:32;11.50;99.90
3408;DHT22;1717;50.240;8.406;2022-09-19T02:29:02;11.50;99.90
3408;DHT22;1717;50.240;8.406;2022-09-19T02:31:31;11.50;99.90
3408;DHT22;1717;50.240;8.406;2022-09-19T02:34:02;11.50;99.90
3408;DHT22;1717;50.240;8.406;2022-09-19T02:36:37;11.50;99.90
3408;DHT22;1717;50.240;8.406;2022-09-19T02:39:12;11.50;99.90
3408;DHT22;1717;50.240;8.406;2022-09-19T02:41:44;11.50;99.90
3408;DHT22;1717;50.240;8.406;2022-09-19T02:44:20;11.50;99.90
3408;DHT22;1717;50.240;8.406;2022-09-19T02:46:54;11.50;99.90
3408;DHT22;1717;50.240;8.406;2022-09-19T02:49:31;11.50;99.90
3408;DHT22;1717;50.240;8.406;2022-09-19T02:52:07;11.50;99.90
3408;DHT22;1717;50.240;8.406;2022-09-19T02:54:37;11.60;99.90
3408;DHT22;1717;50.240;8.406;2022-09-19T02:57:09;11.60;99.90
3408;DHT22;1717;50.240;8.406;2022-09-19T02:59:41;11.60;99.90
3408;DHT22;1717;50.240;8.406;2022-09-19T03:02:15;11.60;99.90
3408;DHT22;1717;50.240;8.406;2022-09-19T03:04:45;11.60;99.90
3408;DHT22;1717;50.240;8.406;2022-09-19T03:07:16;11.60;99.90
3408;DHT22;1717;50.240;8.406;2022-09-19T03:09:48;11.50;99.90
3408;DHT22;1717;50.240;8.406;2022-09-19T03:12:20;11.60;99.90
3408;DHT22;1717;50.240;8.406;2022-09-19T03:14:49;11.50;99.90
3408;DHT22;1717;50.240;8.406;2022-09-19T03:17:26;11.50;99.90
3408;DHT22;1717;50.240;8.406;2022-09-19T03:19:54;11.50;99.90
3408;DHT22;1717;50.240;8.406;2022-09-19T03:22:22;11.50;99.90
3408;DHT22;1717;50.240;8.406;2022-09-19T03:24:51;11.50;99.90
3408;DHT22;1717;50.240;8.406;2022-09-19T03:27:18;11.50;99.90
3408;DHT22;1717;50.240;8.406;2022-09-19T03:29:45;11.50;99.90
3408;DHT22;1717;50.240;8.406;2022-09-19T03:32:11;11.50;99.90
3408;DHT22;1717;50.240;8.406;2022-09-19T03:34:40;11.60;99.90
3408;DHT22;1717;50.240;8.406;2022-09-19T03:37:06;11.50;99.90
3408;DHT22;1717;50.240;8.406;2022-09-19T03:39:33;11.40;99.90
3408;DHT22;1717;50.240;8.406;2022-09-19T03:42:00;11.50;99.90
3408;DHT22;1717;50.240;8.406;2022-09-19T03:44:27;11.40;99.90
3408;DHT22;1717;50.240;8.406;2022-09-19T03:46:54;11.40;99.90
3408;DHT22;1717;50.240;8.406;2022-09-19T03:49:21;11.40;99.90
3408;DHT22;1717;50.240;8.406;2022-09-19T03:51:49;11.40;99.90
3408;DHT22;1717;50.240;8.406;2022-09-19T03:54:16;11.50;99.90
3408;DHT22;1717;50.240;8.406;2022-09-19T03:56:43;11.50;99.90
3408;DHT22;1717;50.240;8.406;2022-09-19T03:59:10;11.50;99.90
3408;DHT22;1717;50.240;8.406;2022-09-19T04:01:36;11.50;99.90
3408;DHT22;1717;50.240;8.406;2022-09-19T04:04:03;11.50;99.90
3408;DHT22;1717;50.240;8.406;2022-09-19T04:06:31;11.50;99.90
3408;DHT22;1717;50.240;8.406;2022-09-19T04:08:59;11.50;99.90
3408;DHT22;1717;50.240;8.406;2022-09-19T04:11:27;11.50;99.90
3408;DHT22;1717;50.240;8.406;2022-09-19T04:13:54;11.50;99.90
3408;DHT22;1717;50.240;8.406;2022-09-19T04:16:21;11.50;99.90
3408;DHT22;1717;50.240;8.406;2022-09-19T04:18:49;11.60;99.90
3408;DHT22;1717;50.240;8.406;2022-09-19T04:21:18;11.60;99.90
3408;DHT22;1717;50.240;8.406;2022-09-19T04:23:45;11.60;99.90
3408;DHT22;1717;50.240;8.406;2022-09-19T04:26:14;11.60;99.90
3408;DHT22;1717;50.240;8.406;2022-09-19T04:28:41;11.60;99.90
3408;DHT22;1717;50.240;8.406;2022-09-19T04:31:09;11.70;99.90
3408;DHT22;1717;50.240;8.406;2022-09-19T04:33:38;11.60;99.90
3408;DHT22;1717;50.240;8.406;2022-09-19T04:36:05;11.60;99.90
3408;DHT22;1717;50.240;8.406;2022-09-19T04:38:34;11.60;99.90
3408;DHT22;1717;50.240;8.406;2022-09-19T04:41:03;11.60;99.90
3408;DHT22;1717;50.240;8.406;2022-09-19T04:43:32;11.60;99.90
3408;DHT22;1717;50.240;8.406;2022-09-19T04:45:59;11.80;99.90
3408;DHT22;1717;50.240;8.406;2022-09-19T04:48:26;11.80;99.90
3408;DHT22;1717;50.240;8.406;2022-09-19T04:50:53;11.80;99.90
3408;DHT22;1717;50.240;8.406;2022-09-19T04:53:21;11.80;99.90
3408;DHT22;1717;50.240;8.406;2022-09-19T04:55:50;11.80;99.90
3408;DHT22;1717;50.240;8.406;2022-09-19T04:58:17;11.70;99.90
3408;DHT22;1717;50.240;8.406;2022-09-19T05:00:51;11.80;99.90
3408;DHT22;1717;50.240;8.406;2022-09-19T05:03:19;11.80;99.90
3408;DHT22;1717;50.240;8.406;2022-09-19T05:05:47;11.80;99.90
3408;DHT22;1717;50.240;8.406;2022-09-19T05:08:18;11.80;99.90
3408;DHT22;1717;50.240;8.406;2022-09-19T05:10:46;11.80;99.90
3408;DHT22;1717;50.240;8.406;2022-09-19T05:13:14;12.00;99.90
3408;DHT22;1717;50.240;8.406;2022-09-19T05:15:43;11.80;99.90
3408;DHT22;1717;50.240;8.406;2022-09-19T05:18:11;11.80;99.90
3408;DHT22;1717;50.240;8.406;2022-09-19T05:20:39;11.70;99.90
3408;DHT22;1717;50.240;8.406;2022-09-19T05:23:06;11.70;99.90
3408;DHT22;1717;50.240;8.406;2022-09-19T05:25:36;11.70;99.90
3408;DHT22;1717;50.240;8.406;2022-09-19T05:28:04;11.70;99.90
3408;DHT22;1717;50.240;8.406;2022-09-19T05:30:32;11.70;99.90
3408;DHT22;1717;50.240;8.406;2022-09-19T05:32:59;11.70;99.90
3408;DHT22;1717;50.240;8.406;2022-09-19T05:35:29;11.70;99.90
3408;DHT22;1717;50.240;8.406;2022-09-19T05:37:57;11.80;99.90
3408;DHT22;1717;50.240;8.406;2022-09-19T05:40:24;11.70;99.90
3408;DHT22;1717;50.240;8.406;2022-09-19T05:42:52;11.70;99.90
3408;DHT22;1717;50.240;8.406;2022-09-19T05:45:25;11.70;99.90
3408;DHT22;1717;50.240;8.406;2022-09-19T05:47:58;11.70;99.90
3408;DHT22;1717;50.240;8.406;2022-09-19T05:50:26;11.70;99.90
3408;DHT22;1717;50.240;8.406;2022-09-19T05:52:54;11.70;99.90
3408;DHT22;1717;50.240;8.406;2022-09-19T05:55:38;11.70;99.90
3408;DHT22;1717;50.240;8.406;2022-09-19T05:58:06;11.60;99.90
3408;DHT22;1717;50.240;8.406;2022-09-19T06:00:34;11.60;99.90
3408;DHT22;1717;50.240;8.406;2022-09-19T06:03:02;11.70;99.90
3408;DHT22;1717;50.240;8.406;2022-09-19T06:05:30;11.70;99.90
3408;DHT22;1717;50.240;8.406;2022-09-19T06:08:00;11.70;99.90
3408;DHT22;1717;50.240;8.406;2022-09-19T06:10:29;11.70;99.90
3408;DHT22;1717;50.240;8.406;2022-09-19T06:12:56;11.70;99.90
3408;DHT22;1717;50.240;8.406;2022-09-19T06:15:23;11.70;99.90
3408;DHT22;1717;50.240;8.406;2022-09-19T06:17:53;11.70;99.90
3408;DHT22;1717;50.240;8.406;2022-09-19T06:20:20;11.70;99.90
3408;DHT22;1717;50.240;8.406;2022-09-19T06:22:47;11.80;99.90
3408;DHT22;1717;50.240;8.406;2022-09-19T06:25:17;11.70;99.90
3408;DHT22;1717;50.240;8.406;2022-09-19T06:27:52;11.70;99.90
3408;DHT22;1717;50.240;8.406;2022-09-19T06:30:19;11.70;99.90
3408;DHT22;1717;50.240;8.406;2022-09-19T06:32:46;11.70;99.90
3408;DHT22;1717;50.240;8.406;2022-09-19T06:35:13;11.70;99.90
3408;DHT22;1717;50.240;8.406;2022-09-19T06:37:40;11.70;99.90
3408;DHT22;1717;50.240;8.406;2022-09-19T06:40:08;11.80;99.90
3408;DHT22;1717;50.240;8.406;2022-09-19T06:42:36;11.80;99.90
3408;DHT22;1717;50.240;8.406;2022-09-19T06:45:03;11.70;99.90
3408;DHT22;1717;50.240;8.406;2022-09-19T06:47:32;11.70;99.90
3408;DHT22;1717;50.240;8.406;2022-09-19T06:49:58;11.60;99.90
3408;DHT22;1717;50.240;8.406;2022-09-19T06:52:26;11.70;99.90
3408;DHT22;1717;50.240;8.406;2022-09-19T06:54:53;11.70;99.90
3408;DHT22;1717;50.240;8.406;2022-09-19T06:57:20;11.70;99.90
3408;DHT22;1717;50.240;8.406;2022-09-19T06:59:48;11.70;99.90
3408;DHT22;1717;50.240;8.406;2022-09-19T07:02:15;11.70;99.90
3408;DHT22;1717;50.240;8.406;2022-09-19T07:04:42;11.70;99.90
3408;DHT22;1717;50.240;8.406;2022-09-19T07:07:09;11.70;99.90
3408;DHT22;1717;50.240;8.406;2022-09-19T07:09:36;11.70;99.90
3408;DHT22;1717;50.240;8.406;2022-09-19T07:12:03;11.80;99.90
3408;DHT22;1717;50.240;8.406;2022-09-19T07:14:30;11.80;99.90
3408;DHT22;1717;50.240;8.406;2022-09-19T07:16:59;11.80;99.90
3408;DHT22;1717;50.240;8.406;2022-09-19T07:19:26;11.80;99.90
3408;DHT22;1717;50.240;8.406;2022-09-19T07:21:53;11.80;99.90
3408;DHT22;1717;50.240;8.406;2022-09-19T07:24:20;11.80;99.90
3408;DHT22;1717;50.240;8.406;2022-09-19T07:26:47;11.90;99.90
3408;DHT22;1717;50.240;8.406;2022-09-19T07:29:14;11.90;99.90
3408;DHT22;1717;50.240;8.406;2022-09-19T07:31:40;11.90;99.90
3408;DHT22;1717;50.240;8.406;2022-09-19T07:34:09;11.90;99.90
3408;DHT22;1717;50.240;8.406;2022-09-19T07:36:36;12.00;99.90
3408;DHT22;1717;50.240;8.406;2022-09-19T07:39:03;11.90;99.90
3408;DHT22;1717;50.240;8.406;2022-09-19T07:41:30;12.00;99.90
3408;DHT22;1717;50.240;8.406;2022-09-19T07:43:57;12.00;99.90
3408;DHT22;1717;50.240;8.406;2022-09-19T07:46:24;12.00;99.90
3408;DHT22;1717;50.240;8.406;2022-09-19T07:48:52;12.00;99.90
3408;DHT22;1717;50.240;8.406;2022-09-19T07:51:22;12.10;99.90
3408;DHT22;1717;50.240;8.406;2022-09-19T07:53:48;12.10;99.90
3408;DHT22;1717;50.240;8.406;2022-09-19T07:56:16;12.20;99.90
3408;DHT22;1717;50.240;8.406;2022-09-19T07:58:42;12.10;99.90
3408;DHT22;1717;50.240;8.406;2022-09-19T08:01:10;12.10;99.90
3408;DHT22;1717;50.240;8.406;2022-09-19T08:03:37;12.20;99.90
3408;DHT22;1717;50.240;8.406;2022-09-19T08:06:04;12.20;99.90
3408;DHT22;1717;50.240;8.406;2022-09-19T08:08:35;12.30;99.90
3408;DHT22;1717;50.240;8.406;2022-09-19T08:11:01;12.30;99.90
3408;DHT22;1717;50.240;8.406;2022-09-19T08:13:28;12.30;99.90
3408;DHT22;1717;50.240;8.406;2022-09-19T08:15:56;12.30;99.90
3408;DHT22;1717;50.240;8.406;2022-09-19T08:18:23;12.40;99.90
3408;DHT22;1717;50.240;8.406;2022-09-19T08:20:52;12.40;99.90
3408;DHT22;1717;50.240;8.406;2022-09-19T08:23:20;12.40;99.90
3408;DHT22;1717;50.240;8.406;2022-09-19T08:25:48;12.50;99.90
3408;DHT22;1717;50.240;8.406;2022-09-19T08:28:17;12.50;99.90
3408;DHT22;1717;50.240;8.406;2022-09-19T08:30:45;12.50;99.90
3408;DHT22;1717;50.240;8.406;2022-09-19T08:33:14;12.50;99.90
3408;DHT22;1717;50.240;8.406;2022-09-19T08:35:41;12.50;99.90
3408;DHT22;1717;50.240;8.406;2022-09-19T08:38:09;12.50;99.90
3408;DHT22;1717;50.240;8.406;2022-09-19T08:40:49;12.50;99.90
3408;DHT22;1717;50.240;8.406;2022-09-19T08:43:23;12.50;99.90
3408;DHT22;1717;50.240;8.406;2022-09-19T08:46:10;12.50;99.90
3408;DHT22;1717;50.240;8.406;2022-09-19T08:48:49;12.50;99.90
3408;DHT22;1717;50.240;8.406;2022-09-19T08:51:23;12.60;99.90
3408;DHT22;1717;50.240;8.406;2022-09-19T08:53:56;12.60;99.90
3408;DHT22;1717;50.240;8.406;2022-09-19T08:56:28;12.60;99.90
3408;DHT22;1717;50.240;8.406;2022-09-19T08:58:59;12.60;99.90
3408;DHT22;1717;50.240;8.406;2022-09-19T09:01:32;12.60;99.90
3408;DHT22;1717;50.240;8.406;2022-09-19T09:04:15;12.60;99.90
3408;DHT22;1717;50.240;8.406;2022-09-19T09:06:53;12.60;99.90
3408;DHT22;1717;50.240;8.406;2022-09-19T09:09:35;12.70;99.90
3408;DHT22;1717;50.240;8.406;2022-09-19T09:12:15;12.70;99.90
3408;DHT22;1717;50.240;8.406;2022-09-19T09:14:54;12.70;99.90
3408;DHT22;1717;50.240;8.406;2022-09-19T09:17:29;12.70;99.90
3408;DHT22;1717;50.240;8.406;2022-09-19T09:20:21;12.70;99.90
3408;DHT22;1717;50.240;8.406;2022-09-19T09:23:02;12.70;99.90
3408;DHT22;1717;50.240;8.406;2022-09-19T09:25:33;12.80;99.90
3408;DHT22;1717;50.240;8.406;2022-09-19T09:28:06;12.80;99.90
3408;DHT22;1717;50.240;8.406;2022-09-19T09:30:38;12.80;99.90
3408;DHT22;1717;50.240;8.406;2022-09-19T09:33:13;12.90;99.90
3408;DHT22;1717;50.240;8.406;2022-09-19T09:35:47;12.90;99.90
3408;DHT22;1717;50.240;8.406;2022-09-19T09:38:24;13.00;99.90
3408;DHT22;1717;50.240;8.406;2022-09-19T09:40:57;13.00;99.90
3408;DHT22;1717;50.240;8.406;2022-09-19T09:43:53;13.20;99.90
3408;DHT22;1717;50.240;8.406;2022-09-19T09:46:32;13.10;99.90
3408;DHT22;1717;50.240;8.406;2022-09-19T09:49:00;13.20;99.90
3408;DHT22;1717;50.240;8.406;2022-09-19T09:51:35;13.20;99.90
3408;DHT22;1717;50.240;8.406;2022-09-19T09:54:15;13.40;99.90
3408;DHT22;1717;50.240;8.406;2022-09-19T09:57:04;13.30;99.90
3408;DHT22;1717;50.240;8.406;2022-09-19T09:59:41;13.40;99.90
3408;DHT22;1717;50.240;8.406;2022-09-19T10:02:38;13.40;99.90
3408;DHT22;1717;50.240;8.406;2022-09-19T10:05:31;13.50;99.90
3408;DHT22;1717;50.240;8.406;2022-09-19T10:08:11;13.50;99.90
3408;DHT22;1717;50.240;8.406;2022-09-19T10:10:44;13.50;99.90
3408;DHT22;1717;50.240;8.406;2022-09-19T10:13:22;13.60;99.90
3408;DHT22;1717;50.240;8.406;2022-09-19T10:15:56;13.60;99.90
3408;DHT22;1717;50.240;8.406;2022-09-19T10:18:42;13.70;99.90
3408;DHT22;1717;50.240;8.406;2022-09-19T10:21:10;13.70;99.90
3408;DHT22;1717;50.240;8.406;2022-09-19T10:23:37;13.80;99.90
3408;DHT22;1717;50.240;8.406;2022-09-19T10:26:06;13.80;99.90
3408;DHT22;1717;50.240;8.406;2022-09-19T10:28:43;13.90;99.90
3408;DHT22;1717;50.240;8.406;2022-09-19T10:31:23;13.90;99.90
3408;DHT22;1717;50.240;8.406;2022-09-19T10:33:51;14.00;99.90
3408;DHT22;1717;50.240;8.406;2022-09-19T10:36:21;14.00;99.90
3408;DHT22;1717;50.240;8.406;2022-09-19T10:38:52;14.10;99.90
3408;DHT22;1717;50.240;8.406;2022-09-19T10:41:22;14.10;99.90
3408;DHT22;1717;50.240;8.406;2022-09-19T10:43:53;14.10;99.90
3408;DHT22;1717;50.240;8.406;2022-09-19T10:46:23;14.10;99.90
3408;DHT22;1717;50.240;8.406;2022-09-19T10:48:53;14.10;99.90
3408;DHT22;1717;50.240;8.406;2022-09-19T10:51:30;14.20;99.90
3408;DHT22;1717;50.240;8.406;2022-09-19T10:53:59;14.40;99.90
3408;DHT22;1717;50.240;8.406;2022-09-19T10:56:28;14.30;99.90
3408;DHT22;1717;50.240;8.406;2022-09-19T10:59:04;14.30;99.90
3408;DHT22;1717;50.240;8.406;2022-09-19T11:01:34;14.30;99.90
3408;DHT22;1717;50.240;8.406;2022-09-19T11:04:03;14.40;99.90
3408;DHT22;1717;50.240;8.406;2022-09-19T11:06:31;14.40;99.90
3408;DHT22;1717;50.240;8.406;2022-09-19T11:08:59;14.40;99.90
3408;DHT22;1717;50.240;8.406;2022-09-19T11:11:29;14.50;99.90
3408;DHT22;1717;50.240;8.406;2022-09-19T11:14:20;14.60;99.90
3408;DHT22;1717;50.240;8.406;2022-09-19T11:17:22;14.60;99.90
3408;DHT22;1717;50.240;8.406;2022-09-19T11:20:13;14.60;99.90
3408;DHT22;1717;50.240;8.406;2022-09-19T11:22:57;14.60;99.90
3408;DHT22;1717;50.240;8.406;2022-09-19T11:25:36;14.60;99.90
3408;DHT22;1717;50.240;8.406;2022-09-19T11:28:18;14.60;99.90
3408;DHT22;1717;50.240;8.406;2022-09-19T11:30:54;14.70;99.90
3408;DHT22;1717;50.240;8.406;2022-09-19T11:33:36;14.70;99.90
3408;DHT22;1717;50.240;8.406;2022-09-19T11:36:07;14.70;99.90
3408;DHT22;1717;50.240;8.406;2022-09-19T11:38:41;14.80;99.90
3408;DHT22;1717;50.240;8.406;2022-09-19T11:41:24;14.80;99.90
3408;DHT22;1717;50.240;8.406;2022-09-19T11:44:05;14.90;99.90
3408;DHT22;1717;50.240;8.406;2022-09-19T11:46:37;14.90;99.90
3408;DHT22;1717;50.240;8.406;2022-09-19T11:49:21;15.00;99.90
3408;DHT22;1717;50.240;8.406;2022-09-19T11:52:01;15.00;99.90
3408;DHT22;1717;50.240;8.406;2022-09-19T11:54:42;15.00;99.90
3408;DHT22;1717;50.240;8.406;2022-09-19T11:57:20;15.00;99.90
3408;DHT22;1717;50.240;8.406;2022-09-19T12:00:04;15.00;99.90
3408;DHT22;1717;50.240;8.406;2022-09-19T12:02:47;15.00;99.90
3408;DHT22;1717;50.240;8.406;2022-09-19T12:05:23;15.00;99.90
3408;DHT22;1717;50.240;8.406;2022-09-19T12:08:11;15.00;99.90
3408;DHT22;1717;50.240;8.406;2022-09-19T12:10:46;14.90;99.90
3408;DHT22;1717;50.240;8.406;2022-09-19T12:13:21;14.90;99.90
3408;DHT22;1717;50.240;8.406;2022-09-19T12:15:52;14.90;99.90
3408;DHT22;1717;50.240;8.406;2022-09-19T12:18:23;14.90;99.90
3408;DHT22;1717;50.240;8.406;2022-09-19T12:20:55;14.90;99.90
3408;DHT22;1717;50.240;8.406;2022-09-19T12:23:25;14.90;99.90
3408;DHT22;1717;50.240;8.406;2022-09-19T12:26:16;15.00;99.90
3408;DHT22;1717;50.240;8.406;2022-09-19T12:28:48;15.00;99.90
3408;DHT22;1717;50.240;8.406;2022-09-19T12:31:22;15.10;99.90
3408;DHT22;1717;50.240;8.406;2022-09-19T12:33:53;15.10;99.90
3408;DHT22;1717;50.240;8.406;2022-09-19T12:36:28;15.20;99.90
3408;DHT22;1717;50.240;8.406;2022-09-19T12:39:01;15.30;99.90
3408;DHT22;1717;50.240;8.406;2022-09-19T12:41:38;15.40;99.90
3408;DHT22;1717;50.240;8.406;2022-09-19T12:44:12;15.50;99.90
3408;DHT22;1717;50.240;8.406;2022-09-19T12:46:49;15.50;99.90
3408;DHT22;1717;50.240;8.406;2022-09-19T12:49:27;15.50;99.90
3408;DHT22;1717;50.240;8.406;2022-09-19T12:52:04;15.60;99.90
3408;DHT22;1717;50.240;8.406;2022-09-19T12:54:38;15.60;99.90
3408;DHT22;1717;50.240;8.406;2022-09-19T12:57:10;15.60;99.90
3408;DHT22;1717;50.240;8.406;2022-09-19T12:59:41;15.70;99.90
3408;DHT22;1717;50.240;8.406;2022-09-19T13:02:18;15.70;99.90
3408;DHT22;1717;50.240;8.406;2022-09-19T13:04:53;15.80;99.90
3408;DHT22;1717;50.240;8.406;2022-09-19T13:07:30;15.90;99.90
3408;DHT22;1717;50.240;8.406;2022-09-19T13:10:06;16.00;99.90
3408;DHT22;1717;50.240;8.406;2022-09-19T13:12:40;16.10;99.90
3408;DHT22;1717;50.240;8.406;2022-09-19T13:15:18;16.20;99.90
3408;DHT22;1717;50.240;8.406;2022-09-19T13:17:49;16.30;99.90
3408;DHT22;1717;50.240;8.406;2022-09-19T13:20:37;16.40;99.90
3408;DHT22;1717;50.240;8.406;2022-09-19T13:23:25;16.50;99.90
3408;DHT22;1717;50.240;8.406;2022-09-19T13:26:17;16.60;99.90
3408;DHT22;1717;50.240;8.406;2022-09-19T13:28:47;16.70;99.90
3408;DHT22;1717;50.240;8.406;2022-09-19T13:31:15;16.70;99.90
3408;DHT22;1717;50.240;8.406;2022-09-19T13:33:45;16.70;99.90
3408;DHT22;1717;50.240;8.406;2022-09-19T13:36:15;16.80;99.90
3408;DHT22;1717;50.240;8.406;2022-09-19T13:38:46;16.90;99.90
3408;DHT22;1717;50.240;8.406;2022-09-19T13:41:23;17.00;99.90
3408;DHT22;1717;50.240;8.406;2022-09-19T13:44:11;17.00;99.90
3408;DHT22;1717;50.240;8.406;2022-09-19T13:46:47;17.10;99.90
3408;DHT22;1717;50.240;8.406;2022-09-19T13:49:21;17.20;99.90
3408;DHT22;1717;50.240;8.406;2022-09-19T13:51:59;17.20;99.90
3408;DHT22;1717;50.240;8.406;2022-09-19T13:54:58;17.10;99.90
3408;DHT22;1717;50.240;8.406;2022-09-19T13:57:27;17.20;99.90
3408;DHT22;1717;50.240;8.406;2022-09-19T13:59:58;17.20;99.90
3408;DHT22;1717;50.240;8.406;2022-09-19T14:02:27;17.20;99.90
3408;DHT22;1717;50.240;8.406;2022-09-19T14:05:03;17.10;99.90
3408;DHT22;1717;50.240;8.406;2022-09-19T14:07:36;17.10;99.90
3408;DHT22;1717;50.240;8.406;2022-09-19T14:10:17;17.00;99.90
3408;DHT22;1717;50.240;8.406;2022-09-19T14:13:01;17.00;99.90
3408;DHT22;1717;50.240;8.406;2022-09-19T14:16:03;16.90;99.90
3408;DHT22;1717;50.240;8.406;2022-09-19T14:18:48;16.70;99.90
3408;DHT22;1717;50.240;8.406;2022-09-19T14:24:37;16.50;99.90
3408;DHT22;1717;50.240;8.406;2022-09-19T14:27:18;16.40;99.90
3408;DHT22;1717;50.240;8.406;2022-09-19T14:29:52;16.30;99.90
3408;DHT22;1717;50.240;8.406;2022-09-19T14:32:30;16.20;99.90
3408;DHT22;1717;50.240;8.406;2022-09-19T14:35:22;16.10;99.90
3408;DHT22;1717;50.240;8.406;2022-09-19T14:38:20;16.10;99.90
3408;DHT22;1717;50.240;8.406;2022-09-19T14:40:55;15.90;99.90
3408;DHT22;1717;50.240;8.406;2022-09-19T14:46:52;16.10;99.90
3408;DHT22;1717;50.240;8.406;2022-09-19T14:49:23;16.00;99.90
3408;DHT22;1717;50.240;8.406;2022-09-19T14:51:58;15.90;99.90
3408;DHT22;1717;50.240;8.406;2022-09-19T14:54:31;15.90;99.90
3408;DHT22;1717;50.240;8.406;2022-09-19T14:57:02;16.00;99.90
3408;DHT22;1717;50.240;8.406;2022-09-19T14:59:31;16.10;99.90
3408;DHT22;1717;50.240;8.406;2022-09-19T15:02:17;16.10;99.90
3408;DHT22;1717;50.240;8.406;2022-09-19T15:04:46;16.10;99.90
3408;DHT22;1717;50.240;8.406;2022-09-19T15:07:15;16.20;99.90
3408;DHT22;1717;50.240;8.406;2022-09-19T15:09:42;16.20;99.90
3408;DHT22;1717;50.240;8.406;2022-09-19T15:12:15;16.30;99.90
3408;DHT22;1717;50.240;8.406;2022-09-19T15:14:45;16.30;99.90
3408;DHT22;1717;50.240;8.406;2022-09-19T15:17:16;16.40;99.90
3408;DHT22;1717;50.240;8.406;2022-09-19T15:19:45;16.40;99.90
3408;DHT22;1717;50.240;8.406;2022-09-19T15:22:23;16.50;99.90
3408;DHT22;1717;50.240;8.406;2022-09-19T15:24:54;16.50;99.90
3408;DHT22;1717;50.240;8.406;2022-09-19T15:27:24;16.50;99.90
3408;DHT22;1717;50.240;8.406;2022-09-19T15:29:52;16.50;99.90
3408;DHT22;1717;50.240;8.406;2022-09-19T15:32:24;16.50;99.90
3408;DHT22;1717;50.240;8.406;2022-09-19T15:34:57;16.50;99.90
3408;DHT22;1717;50.240;8.406;2022-09-19T15:37:25;16.50;99.90
3408;DHT22;1717;50.240;8.406;2022-09-19T15:39:54;16.40;99.90
3408;DHT22;1717;50.240;8.406;2022-09-19T15:42:21;16.40;99.90
3408;DHT22;1717;50.240;8.406;2022-09-19T15:44:48;16.30;99.90
3408;DHT22;1717;50.240;8.406;2022-09-19T15:47:19;16.30;99.90
3408;DHT22;1717;50.240;8.406;2022-09-19T15:49:57;16.40;99.90
3408;DHT22;1717;50.240;8.406;2022-09-19T15:52:28;16.10;99.90
3408;DHT22;1717;50.240;8.406;2022-09-19T15:54:57;16.10;99.90
3408;DHT22;1717;50.240;8.406;2022-09-19T15:57:26;16.10;99.90
3408;DHT22;1717;50.240;8.406;2022-09-19T16:00:03;16.00;99.90
3408;DHT22;1717;50.240;8.406;2022-09-19T16:02:33;16.00;99.90
3408;DHT22;1717;50.240;8.406;2022-09-19T16:05:13;15.90;99.90
3408;DHT22;1717;50.240;8.406;2022-09-19T16:07:47;15.80;99.90
3408;DHT22;1717;50.240;8.406;2022-09-19T16:10:35;15.70;99.90
3408;DHT22;1717;50.240;8.406;2022-09-19T16:13:03;15.70;99.90
3408;DHT22;1717;50.240;8.406;2022-09-19T16:15:35;15.60;99.90
3408;DHT22;1717;50.240;8.406;2022-09-19T16:18:17;15.60;99.90
3408;DHT22;1717;50.240;8.406;2022-09-19T16:20:54;15.60;99.90
3408;DHT22;1717;50.240;8.406;2022-09-19T16:23:24;15.50;99.90
3408;DHT22;1717;50.240;8.406;2022-09-19T16:25:57;15.50;99.90
3408;DHT22;1717;50.240;8.406;2022-09-19T16:28:28;15.50;99.90
3408;DHT22;1717;50.240;8.406;2022-09-19T16:31:03;15.50;99.90
3408;DHT22;1717;50.240;8.406;2022-09-19T16:33:34;15.40;99.90
3408;DHT22;1717;50.240;8.406;2022-09-19T16:36:08;15.40;99.90
3408;DHT22;1717;50.240;8.406;2022-09-19T16:38:37;15.30;99.90
3408;DHT22;1717;50.240;8.406;2022-09-19T16:41:06;15.30;99.90
3408;DHT22;1717;50.240;8.406;2022-09-19T16:43:38;15.20;99.90